Time;durP1;ratioP1;P1;durP2;ratioP2;P2;SDS_P1;SDS_P2;PMS_P1;PMS_P2;Temp;Humidity;BMP_temperature;BMP_pressure;BME280_temperature;BME280_humidity;BME280_pressure;Samples;Min_cycle;Max_cycle;Signal;HPM_P1;HPM_P2
2023/03/28 00:00:34;;;;;;;4.80;2.60;;;;;19.80;101439.00;;;;2087551;28;20848;-69
2023/03/28 00:01:34;;;;;;;3.83;2.30;;;;;19.80;101450.00;;;;2081137;28;20688;-69
2023/03/28 00:02:35;;;;;;;3.70;2.23;;;;;19.70;101452.00;;;;2086300;28;20212;-69
2023/03/28 00:03:38;;;;;;;6.57;2.57;;;;;19.70;101448.00;;;;2085779;28;20202;-69
2023/03/28 00:04:40;;;;;;;4.95;2.35;;;;;19.70;101450.00;;;;2087073;28;20212;-69
2023/03/28 00:05:40;;;;;;;3.67;2.35;;;;;19.70;101452.00;;;;2088444;28;20211;-69
2023/03/28 00:06:44;;;;;;;5.20;2.40;;;;;19.70;101456.00;;;;2085566;28;20241;-69
2023/03/28 00:07:44;;;;;;;6.25;2.72;;;;;19.70;101446.00;;;;2080159;28;20256;-69
2023/03/28 00:08:46;;;;;;;3.70;2.40;;;;;19.70;101454.00;;;;2085322;28;20205;-69
2023/03/28 00:09:47;;;;;;;3.83;2.60;;;;;19.70;101449.00;;;;2087745;28;20213;-69
2023/03/28 00:10:48;;;;;;;3.80;2.17;;;;;19.70;101444.00;;;;2088917;28;21023;-69
2023/03/28 00:11:48;;;;;;;2.93;2.07;;;;;19.70;101450.00;;;;2087060;28;20217;-69
2023/03/28 00:12:48;;;;;;;4.40;2.37;;;;;19.70;101443.00;;;;2088328;28;20228;-69
2023/03/28 00:13:56;;;;;;;3.37;2.10;;;;;19.70;101443.00;;;;2087523;28;20254;-69
2023/03/28 00:14:57;;;;;;;4.65;2.75;;;;;19.70;101458.00;;;;2089088;28;20254;-69
2023/03/28 00:16:02;;;;;;;5.37;2.30;;;;;19.60;101448.00;;;;2088793;28;20217;-69
2023/03/28 00:17:06;;;;;;;3.22;2.17;;;;;19.60;101445.00;;;;2087960;28;20270;-69
2023/03/28 00:18:10;;;;;;;3.33;2.10;;;;;19.60;101447.00;;;;2088093;28;20240;-69
2023/03/28 00:19:13;;;;;;;3.90;2.28;;;;;19.60;101453.00;;;;2087194;28;20236;-69
2023/03/28 00:20:14;;;;;;;4.03;2.17;;;;;19.60;101440.00;;;;2088808;28;20209;-69
2023/03/28 00:21:23;;;;;;;4.18;2.38;;;;;19.60;101454.00;;;;2087980;28;20307;-69
2023/03/28 00:22:23;;;;;;;4.05;2.10;;;;;19.60;101455.00;;;;2082290;28;20225;-69
2023/03/28 00:23:24;;;;;;;3.80;1.97;;;;;19.60;101453.00;;;;2087791;28;20213;-69
2023/03/28 00:24:24;;;;;;;3.67;1.83;;;;;19.60;101454.00;;;;2089068;28;20228;-69
2023/03/28 00:25:25;;;;;;;3.60;2.50;;;;;19.60;101452.00;;;;2086919;28;20623;-69
2023/03/28 00:26:26;;;;;;;3.90;2.23;;;;;19.60;101452.00;;;;2087799;28;20251;-69
2023/03/28 00:27:26;;;;;;;5.43;2.93;;;;;19.60;101448.00;;;;2085920;28;20528;-69
2023/03/28 00:28:27;;;;;;;4.40;2.00;;;;;19.60;101445.00;;;;2085612;28;20270;-69
2023/03/28 00:29:28;;;;;;;5.00;2.30;;;;;19.60;101454.00;;;;2089029;28;20246;-69
2023/03/28 00:30:29;;;;;;;3.03;2.00;;;;;19.60;101456.00;;;;2088227;28;20601;-69
2023/03/28 00:31:30;;;;;;;4.73;2.27;;;;;19.60;101447.00;;;;2088838;28;20228;-69
2023/03/28 00:32:31;;;;;;;4.20;3.13;;;;;19.60;101450.00;;;;2087195;28;20463;-69
2023/03/28 00:33:31;;;;;;;4.20;2.43;;;;;19.60;101456.00;;;;2088041;28;20227;-69
2023/03/28 00:34:31;;;;;;;5.20;2.50;;;;;19.60;101461.00;;;;2085980;28;20356;-69
2023/03/28 00:35:32;;;;;;;6.10;2.53;;;;;19.60;101461.00;;;;2087034;28;20215;-69
2023/03/28 00:36:32;;;;;;;4.57;2.40;;;;;19.60;101458.00;;;;2088683;28;20204;-69
2023/03/28 00:37:33;;;;;;;6.03;2.80;;;;;19.60;101456.00;;;;2087239;28;20225;-69
2023/03/28 00:38:33;;;;;;;3.43;2.07;;;;;19.60;101458.00;;;;2088867;28;20663;-69
2023/03/28 00:39:33;;;;;;;3.53;2.03;;;;;19.60;101453.00;;;;2088780;28;20581;-69
2023/03/28 00:40:35;;;;;;;6.10;2.63;;;;;19.60;101457.00;;;;2088341;28;20212;-69
2023/03/28 00:41:41;;;;;;;4.10;1.90;;;;;19.60;101456.00;;;;2088535;28;20227;-69
2023/03/28 00:42:41;;;;;;;3.20;2.22;;;;;19.60;101449.00;;;;2087501;28;20208;-69
2023/03/28 00:43:43;;;;;;;3.47;2.03;;;;;19.60;101457.00;;;;2088510;28;20213;-69
2023/03/28 00:44:47;;;;;;;3.83;2.35;;;;;19.50;101457.00;;;;2087596;28;20221;-69
2023/03/28 00:45:48;;;;;;;5.03;2.25;;;;;19.60;101453.00;;;;2088914;28;20236;-69
2023/03/28 00:46:48;;;;;;;4.73;2.23;;;;;19.60;101454.00;;;;2088249;28;20209;-69
2023/03/28 00:48:10;;;;;;;4.67;1.80;;;;;19.60;101461.00;;;;2087786;28;20205;-69
2023/03/28 00:49:14;;;;;;;5.32;2.38;;;;;19.50;101454.00;;;;2074528;28;20287;-69
2023/03/28 00:50:26;;;;;;;5.10;2.33;;;;;19.60;101444.00;;;;2080166;28;20225;-69
2023/03/28 00:51:29;;;;;;;5.35;2.35;;;;;19.50;101447.00;;;;2074082;28;20312;-69
2023/03/28 00:52:33;;;;;;;4.53;2.40;;;;;19.50;101458.00;;;;2075654;28;20225;-69
2023/03/28 00:53:35;;;;;;;4.55;2.35;;;;;19.50;101448.00;;;;2084983;28;20625;-69
2023/03/28 00:54:38;;;;;;;5.32;2.47;;;;;19.50;101457.00;;;;2070446;28;20212;-69
2023/03/28 00:55:44;;;;;;;3.53;2.00;;;;;19.50;101446.00;;;;2080118;28;20292;-69
2023/03/28 00:56:46;;;;;;;5.85;2.63;;;;;19.50;101453.00;;;;2087481;28;20197;-69
2023/03/28 00:57:46;;;;;;;5.30;2.60;;;;;19.50;101449.00;;;;2085428;28;20231;-69
2023/03/28 00:58:47;;;;;;;3.37;2.30;;;;;19.50;101449.00;;;;2086974;28;20889;-69
2023/03/28 00:59:47;;;;;;;4.63;2.50;;;;;19.50;101454.00;;;;2079529;28;20198;-68
2023/03/28 01:00:49;;;;;;;4.73;2.30;;;;;19.50;101457.00;;;;2087902;28;20204;-69
2023/03/28 01:01:49;;;;;;;8.25;2.42;;;;;19.50;101453.00;;;;2087770;28;20205;-69
2023/03/28 01:02:51;;;;;;;5.43;2.17;;;;;19.50;101447.00;;;;2096236;28;20273;-69
2023/03/28 01:04:01;;;;;;;5.00;2.70;;;;;19.50;101454.00;;;;2087816;28;20209;-69
2023/03/28 01:05:02;;;;;;;5.45;2.28;;;;;19.50;101448.00;;;;2087065;28;20213;-69
2023/03/28 01:06:03;;;;;;;5.37;2.57;;;;;19.50;101448.00;;;;2087841;28;20695;-69
2023/03/28 01:07:03;;;;;;;5.10;2.40;;;;;19.50;101454.00;;;;2087081;28;20474;-69
2023/03/28 01:08:13;;;;;;;5.30;2.40;;;;;19.50;101452.00;;;;2079595;28;20236;-69
2023/03/28 01:09:14;;;;;;;3.97;1.90;;;;;19.50;101455.00;;;;2088167;28;20250;-69
2023/03/28 01:10:15;;;;;;;5.30;2.23;;;;;19.50;101447.00;;;;2078885;28;20240;-69
2023/03/28 01:11:15;;;;;;;3.90;2.10;;;;;19.50;101451.00;;;;2067993;28;20230;-69
2023/03/28 01:12:15;;;;;;;4.07;2.10;;;;;19.50;101456.00;;;;2077806;28;20213;-69
2023/03/28 01:13:18;;;;;;;3.30;2.10;;;;;19.50;101456.00;;;;2079395;28;20216;-69
2023/03/28 01:14:19;;;;;;;3.70;2.10;;;;;19.50;101458.00;;;;2087376;28;20197;-69
2023/03/28 01:15:20;;;;;;;4.20;2.20;;;;;19.50;101467.00;;;;2087156;28;20201;-69
2023/03/28 01:16:20;;;;;;;5.40;2.50;;;;;19.50;101454.00;;;;2086640;28;20307;-69
2023/03/28 01:17:21;;;;;;;9.27;2.77;;;;;19.50;101434.00;;;;2087803;28;20220;-69
2023/03/28 01:18:22;;;;;;;6.57;2.23;;;;;19.50;101461.00;;;;2087603;28;20702;-69
2023/03/28 01:19:58;;;;;;;3.75;2.30;;;;;19.40;101456.00;;;;2088082;28;20851;-68
2023/03/28 01:21:04;;;;;;;3.85;2.17;;;;;19.40;101464.00;;;;2076522;28;20225;-69
2023/03/28 01:22:23;;;;;;;4.28;1.90;;;;;19.40;101466.00;;;;2085913;28;20240;-69
2023/03/28 01:23:41;;;;;;;4.10;2.15;;;;;19.40;101468.00;;;;2083250;28;20287;-69
2023/03/28 01:24:41;;;;;;;8.57;2.28;;;;;19.40;101463.00;;;;2088334;28;20291;-69
2023/03/28 01:26:12;;;;;;;6.03;2.33;;;;;19.40;101454.00;;;;2087449;28;20205;-69
2023/03/28 01:27:30;;;;;;;5.00;1.98;;;;;19.40;101464.00;;;;2087599;28;20231;-69
2023/03/28 01:28:39;;;;;;;3.38;2.08;;;;;19.40;101460.00;;;;2091640;28;20239;-69
2023/03/28 01:30:30;;;;;;;5.25;2.30;;;;;19.40;101445.00;;;;2094822;28;20216;-69
2023/03/28 01:31:51;;;;;;;8.45;2.83;;;;;19.40;101459.00;;;;2065372;28;20221;-69
2023/03/28 01:33:03;;;;;;;5.63;2.50;;;;;19.40;101457.00;;;;2083903;28;20283;-69
2023/03/28 01:34:23;;;;;;;3.80;2.40;;;;;19.40;101462.00;;;;2081159;28;20233;-69
2023/03/28 01:35:35;;;;;;;4.78;2.20;;;;;19.40;101455.00;;;;2082788;28;20206;-69
2023/03/28 01:36:57;;;;;;;5.97;2.03;;;;;19.40;101458.00;;;;2090415;28;20215;-69
2023/03/28 01:38:20;;;;;;;4.60;2.00;;;;;19.30;101460.00;;;;2086418;28;20231;-69
2023/03/28 01:39:47;;;;;;;5.38;2.53;;;;;19.40;101468.00;;;;2067810;28;20553;-69
2023/03/28 01:40:53;;;;;;;6.15;2.00;;;;;19.40;101450.00;;;;2083728;28;20212;-69
2023/03/28 01:42:07;;;;;;;4.60;2.17;;;;;19.40;101461.00;;;;2082015;28;20706;-69
2023/03/28 01:43:19;;;;;;;4.57;2.58;;;;;19.40;101463.00;;;;2080878;28;20785;-69
2023/03/28 01:44:42;;;;;;;5.00;1.83;;;;;19.40;101458.00;;;;2088578;28;20212;-69
2023/03/28 01:45:50;;;;;;;3.78;1.80;;;;;19.40;101467.00;;;;2087477;28;20213;-69
2023/03/28 01:46:56;;;;;;;4.18;1.90;;;;;19.30;101458.00;;;;2090344;28;20215;-68
2023/03/28 01:48:07;;;;;;;4.70;2.10;;;;;19.30;101456.00;;;;2087653;28;20221;-69
2023/03/28 01:49:10;;;;;;;5.90;2.58;;;;;19.30;101460.00;;;;2086245;28;21016;-69
2023/03/28 01:50:21;;;;;;;5.13;2.10;;;;;19.30;101453.00;;;;2087769;28;20209;-69
2023/03/28 01:51:48;;;;;;;3.95;1.92;;;;;19.30;101459.00;;;;2071835;28;20268;-69
2023/03/28 01:53:11;;;;;;;4.22;2.22;;;;;19.30;101455.00;;;;2073492;28;20216;-69
2023/03/28 01:54:33;;;;;;;3.83;1.92;;;;;19.10;101454.00;;;;2092703;28;20710;-68
2023/03/28 01:55:40;;;;;;;4.57;2.15;;;;;19.30;101455.00;;;;2092552;28;20690;-69
2023/03/28 01:56:50;;;;;;;2.88;1.67;;;;;19.30;101443.00;;;;2094481;28;20725;-68
2023/03/28 01:58:38;;;;;;;3.28;1.90;;;;;19.30;101451.00;;;;2087542;28;20371;-69
2023/03/28 02:00:01;;;;;;;4.28;1.90;;;;;19.30;101444.00;;;;2068318;28;20202;-69
2023/03/28 02:01:14;;;;;;;4.93;2.20;;;;;19.30;101447.00;;;;2081689;28;20213;-69
2023/03/28 02:02:42;;;;;;;4.25;2.20;;;;;19.30;101448.00;;;;2069967;28;20340;-69
2023/03/28 02:03:46;;;;;;;4.43;2.50;;;;;19.30;101443.00;;;;2075050;28;20210;-69
2023/03/28 02:04:47;;;;;;;5.55;2.13;;;;;19.30;101448.00;;;;2068639;28;20252;-69
2023/03/28 02:05:48;;;;;;;3.85;1.85;;;;;19.30;101445.00;;;;2084433;28;20920;-69
2023/03/28 02:06:48;;;;;;;3.63;1.80;;;;;19.30;101439.00;;;;2081933;28;20216;-69
2023/03/28 02:07:50;;;;;;;4.30;2.30;;;;;19.30;101434.00;;;;2076315;28;20221;-69
2023/03/28 02:08:50;;;;;;;6.78;2.40;;;;;19.30;101445.00;;;;2078722;28;20220;-69
2023/03/28 02:09:51;;;;;;;5.37;2.53;;;;;19.30;101447.00;;;;2079206;28;20205;-69
2023/03/28 02:10:51;;;;;;;4.03;2.10;;;;;19.30;101439.00;;;;2086996;28;20208;-69
2023/03/28 02:11:55;;;;;;;6.17;2.20;;;;;19.30;101430.00;;;;2086068;28;20578;-69
2023/03/28 02:12:58;;;;;;;5.32;1.90;;;;;19.30;101431.00;;;;2079471;28;20566;-68
2023/03/28 02:14:06;;;;;;;4.07;2.00;;;;;19.30;101437.00;;;;2072808;28;20228;-69
2023/03/28 02:15:08;;;;;;;7.18;2.65;;;;;19.30;101438.00;;;;2071516;28;20233;-69
2023/03/28 02:16:09;;;;;;;2.88;1.83;;;;;19.30;101441.00;;;;2069766;28;20212;-69
2023/03/28 02:17:14;;;;;;;3.70;1.93;;;;;19.30;101448.00;;;;2079004;28;20217;-69
2023/03/28 02:18:19;;;;;;;4.22;1.73;;;;;19.30;101434.00;;;;2072174;28;20459;-69
2023/03/28 02:19:21;;;;;;;4.15;2.28;;;;;19.30;101443.00;;;;2072022;28;20612;-69
2023/03/28 02:20:23;;;;;;;3.85;2.08;;;;;19.30;101447.00;;;;2076528;28;20227;-69
2023/03/28 02:21:26;;;;;;;5.13;2.13;;;;;19.30;101442.00;;;;2086308;28;20296;-69
2023/03/28 02:22:59;;;;;;;3.50;2.05;;;;;19.20;101432.00;;;;2084539;28;20220;-69
2023/03/28 02:23:59;;;;;;;6.05;1.88;;;;;19.30;101433.00;;;;2086862;28;20254;-69
2023/03/28 02:25:00;;;;;;;9.23;2.50;;;;;19.30;101433.00;;;;2087322;28;20246;-69
2023/03/28 02:26:00;;;;;;;3.27;2.03;;;;;19.20;101421.00;;;;2087337;28;20215;-68
2023/03/28 02:27:00;;;;;;;3.43;2.30;;;;;19.20;101438.00;;;;2078515;28;20224;-69
2023/03/28 02:28:04;;;;;;;3.40;1.87;;;;;19.20;101437.00;;;;2068672;28;20225;-69
2023/03/28 02:29:05;;;;;;;3.70;1.80;;;;;19.20;101428.00;;;;2078805;28;20209;-69
2023/03/28 02:30:08;;;;;;;4.67;2.00;;;;;19.20;101433.00;;;;2078594;28;20220;-69
2023/03/28 02:31:08;;;;;;;3.95;1.80;;;;;19.20;101439.00;;;;2086850;28;20244;-68
2023/03/28 02:32:09;;;;;;;4.43;2.13;;;;;19.20;101431.00;;;;2087784;28;20231;-69
2023/03/28 02:33:38;;;;;;;4.97;2.37;;;;;19.20;101430.00;;;;2085729;28;20220;-69
2023/03/28 02:34:40;;;;;;;2.60;1.75;;;;;19.20;101436.00;;;;2083085;28;20223;-69
2023/03/28 02:35:49;;;;;;;3.67;2.00;;;;;19.20;101439.00;;;;2086532;28;20254;-69
2023/03/28 02:36:59;;;;;;;3.92;1.70;;;;;19.20;101437.00;;;;2087282;28;20292;-69
2023/03/28 02:38:11;;;;;;;3.28;1.60;;;;;19.20;101437.00;;;;2077901;28;20217;-69
2023/03/28 02:39:36;;;;;;;4.47;1.90;;;;;19.20;101439.00;;;;2074666;28;20624;-69
2023/03/28 02:40:51;;;;;;;5.38;1.83;;;;;19.20;101440.00;;;;2086944;28;20667;-69
2023/03/28 02:42:06;;;;;;;4.53;1.70;;;;;19.20;101438.00;;;;2083740;28;20215;-69
2023/03/28 02:43:16;;;;;;;3.70;1.80;;;;;19.20;101430.00;;;;2087138;28;20243;-69
2023/03/28 02:44:45;;;;;;;6.68;2.45;;;;;19.20;101420.00;;;;2088684;28;20209;-69
2023/03/28 02:46:06;;;;;;;5.00;1.85;;;;;19.20;101428.00;;;;2083719;28;20252;-69
2023/03/28 02:47:15;;;;;;;4.03;2.03;;;;;19.20;101433.00;;;;2086479;28;20299;-69
2023/03/28 02:48:21;;;;;;;5.40;2.17;;;;;19.20;101428.00;;;;2079638;28;20224;-69
2023/03/28 02:49:33;;;;;;;4.43;2.17;;;;;19.20;101429.00;;;;2086929;28;20217;-69
2023/03/28 02:50:48;;;;;;;3.92;2.15;;;;;19.20;101436.00;;;;2081519;28;20213;-69
2023/03/28 02:51:57;;;;;;;3.58;1.80;;;;;19.10;101436.00;;;;2074404;28;20259;-69
2023/03/28 02:53:07;;;;;;;5.43;2.33;;;;;19.20;101437.00;;;;2067119;28;20693;-69
2023/03/28 02:54:26;;;;;;;4.43;1.80;;;;;19.20;101432.00;;;;2072816;28;20881;-69
2023/03/28 02:55:56;;;;;;;4.05;1.83;;;;;19.10;101443.00;;;;2081249;28;20225;-69
2023/03/28 02:57:11;;;;;;;3.28;1.88;;;;;19.10;101422.00;;;;2085959;28;20318;-69
2023/03/28 02:58:11;;;;;;;4.30;2.13;;;;;19.10;101440.00;;;;2083568;28;20648;-68
2023/03/28 02:59:19;;;;;;;5.40;2.17;;;;;19.10;101431.00;;;;2085381;28;20228;-69
2023/03/28 03:00:19;;;;;;;7.18;2.58;;;;;19.10;101436.00;;;;2087012;28;20713;-69
2023/03/28 03:01:24;;;;;;;7.30;2.13;;;;;19.10;101434.00;;;;2086544;28;20213;-69
2023/03/28 03:02:24;;;;;;;4.10;1.92;;;;;19.10;101434.00;;;;2080384;28;20241;-69
2023/03/28 03:03:24;;;;;;;5.70;1.80;;;;;19.10;101435.00;;;;2076979;28;20703;-69
2023/03/28 03:04:25;;;;;;;5.63;2.27;;;;;19.10;101438.00;;;;2086647;28;20223;-69
2023/03/28 03:05:25;;;;;;;4.00;1.73;;;;;19.10;101429.00;;;;2087974;28;20236;-69
2023/03/28 03:06:25;;;;;;;4.07;1.93;;;;;19.10;101390.00;;;;2086968;28;20684;-69
2023/03/28 03:07:26;;;;;;;3.07;1.90;;;;;19.10;101423.00;;;;2085506;28;20229;-69
2023/03/28 03:08:26;;;;;;;3.30;1.90;;;;;19.10;101434.00;;;;2082336;28;20238;-69
2023/03/28 03:09:27;;;;;;;4.90;1.70;;;;;19.10;101428.00;;;;2087262;28;20295;-69
2023/03/28 03:10:27;;;;;;;4.70;1.70;;;;;19.10;101423.00;;;;2086095;28;20216;-69
2023/03/28 03:11:27;;;;;;;2.83;1.57;;;;;19.10;101430.00;;;;2087345;28;20277;-69
2023/03/28 03:12:28;;;;;;;5.90;2.30;;;;;19.10;101426.00;;;;2087245;28;20251;-68
2023/03/28 03:13:28;;;;;;;5.70;2.30;;;;;19.10;101423.00;;;;2085629;28;20240;-68
2023/03/28 03:14:28;;;;;;;3.20;1.80;;;;;19.10;101424.00;;;;2087109;28;20216;-69
2023/03/28 03:15:29;;;;;;;3.70;2.20;;;;;19.10;101423.00;;;;2086855;28;20215;-69
2023/03/28 03:16:30;;;;;;;3.67;1.77;;;;;19.10;101423.00;;;;2085826;28;20212;-69
2023/03/28 03:17:30;;;;;;;4.40;1.77;;;;;19.10;101419.00;;;;2086951;28;20790;-69
2023/03/28 03:18:31;;;;;;;2.37;1.87;;;;;19.00;101426.00;;;;2087739;28;20602;-69
2023/03/28 03:19:31;;;;;;;3.20;1.60;;;;;19.10;101428.00;;;;2084827;28;20541;-69
2023/03/28 03:20:32;;;;;;;4.50;2.30;;;;;19.10;101428.00;;;;2086045;28;20451;-69
2023/03/28 03:21:32;;;;;;;4.40;1.93;;;;;19.10;101427.00;;;;2087330;28;20219;-69
2023/03/28 03:22:33;;;;;;;5.13;1.63;;;;;19.10;101423.00;;;;2086690;28;20215;-69
2023/03/28 03:23:33;;;;;;;3.60;1.67;;;;;19.10;101422.00;;;;2084436;28;20694;-69
2023/03/28 03:24:35;;;;;;;4.10;1.80;;;;;19.10;101419.00;;;;2081667;28;20215;-69
2023/03/28 03:25:35;;;;;;;4.32;2.15;;;;;19.00;101422.00;;;;2087687;28;20200;-69
2023/03/28 03:26:35;;;;;;;5.00;2.00;;;;;19.10;101422.00;;;;2087518;28;20805;-69
2023/03/28 03:27:36;;;;;;;2.53;1.70;;;;;19.10;101420.00;;;;2086890;28;20667;-69
2023/03/28 03:28:36;;;;;;;4.70;1.93;;;;;19.00;101431.00;;;;2087270;28;20220;-69
2023/03/28 03:29:37;;;;;;;4.10;2.10;;;;;19.00;101434.00;;;;2086899;28;20215;-69
2023/03/28 03:30:37;;;;;;;3.00;1.90;;;;;19.10;101433.00;;;;2086931;28;20691;-69
2023/03/28 03:31:37;;;;;;;3.67;1.63;;;;;19.10;101434.00;;;;2085823;28;20258;-69
2023/03/28 03:32:38;;;;;;;3.83;1.80;;;;;19.00;101431.00;;;;2087428;28;20659;-69
2023/03/28 03:33:40;;;;;;;4.00;2.17;;;;;19.00;101425.00;;;;2087320;28;20222;-69
2023/03/28 03:34:40;;;;;;;3.28;1.77;;;;;19.00;101429.00;;;;2086651;28;20619;-68
2023/03/28 03:35:40;;;;;;;4.17;1.87;;;;;19.00;101433.00;;;;2087651;28;20257;-69
2023/03/28 03:36:41;;;;;;;3.63;1.70;;;;;19.00;101436.00;;;;2086438;28;20212;-69
2023/03/28 03:37:41;;;;;;;2.87;1.73;;;;;19.00;101436.00;;;;2087550;28;20219;-69
2023/03/28 03:38:42;;;;;;;3.40;1.83;;;;;19.00;101435.00;;;;2086913;28;20246;-69
2023/03/28 03:39:43;;;;;;;4.10;2.13;;;;;19.00;101428.00;;;;2088892;28;20211;-69
2023/03/28 03:40:43;;;;;;;3.40;2.30;;;;;19.00;101441.00;;;;2085122;28;20213;-69
2023/03/28 03:41:44;;;;;;;4.10;1.90;;;;;19.00;101440.00;;;;2088416;28;20252;-69
2023/03/28 03:42:44;;;;;;;3.60;1.77;;;;;19.00;101433.00;;;;2088945;28;20236;-69
2023/03/28 03:43:45;;;;;;;3.07;1.50;;;;;19.00;101429.00;;;;2088240;28;20216;-69
2023/03/28 03:44:45;;;;;;;4.20;1.67;;;;;19.00;101435.00;;;;2084061;28;20323;-69
2023/03/28 03:45:45;;;;;;;3.10;1.90;;;;;19.00;101434.00;;;;2085148;28;20215;-69
2023/03/28 03:46:46;;;;;;;3.40;1.87;;;;;19.00;101426.00;;;;2089247;28;20216;-69
2023/03/28 03:47:46;;;;;;;3.60;2.10;;;;;19.00;101431.00;;;;2088757;28;21289;-69
2023/03/28 03:48:46;;;;;;;3.53;2.00;;;;;19.00;101435.00;;;;2087660;28;20994;-69
2023/03/28 03:49:47;;;;;;;3.40;2.03;;;;;19.00;101436.00;;;;2089284;28;20254;-69
2023/03/28 03:50:47;;;;;;;4.17;1.77;;;;;19.00;101430.00;;;;2087892;28;20440;-69
2023/03/28 03:51:47;;;;;;;3.97;1.87;;;;;18.90;101436.00;;;;2096506;28;20644;-69
2023/03/28 03:52:48;;;;;;;3.50;1.90;;;;;18.90;101432.00;;;;2095134;28;20211;-69
2023/03/28 03:53:49;;;;;;;3.40;1.93;;;;;19.00;101431.00;;;;2088756;28;20228;-69
2023/03/28 03:54:49;;;;;;;3.13;1.70;;;;;19.00;101438.00;;;;2088968;28;20268;-69
2023/03/28 03:55:50;;;;;;;4.73;1.93;;;;;19.00;101435.00;;;;2088317;28;20212;-69
2023/03/28 03:56:50;;;;;;;4.90;2.20;;;;;19.00;101448.00;;;;2084027;28;20205;-69
2023/03/28 03:57:51;;;;;;;3.10;2.10;;;;;19.00;101437.00;;;;2088311;28;20213;-69
2023/03/28 03:58:51;;;;;;;2.90;1.70;;;;;19.00;101446.00;;;;2089095;28;20216;-69
2023/03/28 03:59:51;;;;;;;4.37;2.00;;;;;19.00;101448.00;;;;2088480;28;20215;-68
2023/03/28 04:00:52;;;;;;;4.93;1.97;;;;;18.90;101446.00;;;;2091603;28;20243;-69
2023/03/28 04:01:52;;;;;;;4.80;2.47;;;;;18.90;101449.00;;;;2090381;28;20572;-69
2023/03/28 04:02:52;;;;;;;3.50;2.00;;;;;19.00;101447.00;;;;2088467;28;20601;-69
2023/03/28 04:03:52;;;;;;;5.03;2.00;;;;;18.90;101449.00;;;;2089038;28;20741;-69
2023/03/28 04:04:53;;;;;;;4.13;1.80;;;;;18.90;101448.00;;;;2088112;28;20721;-69
2023/03/28 04:05:55;;;;;;;3.73;1.80;;;;;19.00;101448.00;;;;2088874;28;20683;-69
2023/03/28 04:06:58;;;;;;;3.67;2.15;;;;;18.90;101446.00;;;;2087992;28;20280;-69
2023/03/28 04:08:00;;;;;;;4.20;2.10;;;;;18.90;101461.00;;;;2089099;28;20208;-69
2023/03/28 04:09:00;;;;;;;5.72;1.95;;;;;18.90;101456.00;;;;2086918;28;20215;-69
2023/03/28 04:10:01;;;;;;;3.57;2.13;;;;;18.90;101460.00;;;;2088997;28;20257;-69
2023/03/28 04:11:01;;;;;;;4.30;2.43;;;;;18.90;101458.00;;;;2096435;28;20218;-69
2023/03/28 04:12:02;;;;;;;3.10;1.80;;;;;18.90;101465.00;;;;2095468;28;20239;-69
2023/03/28 04:13:02;;;;;;;3.70;2.13;;;;;18.90;101461.00;;;;2088902;28;20220;-69
2023/03/28 04:14:03;;;;;;;3.90;1.90;;;;;18.90;101448.00;;;;2088351;28;20232;-69
2023/03/28 04:15:05;;;;;;;5.10;2.60;;;;;18.90;101463.00;;;;2088986;28;20242;-69
2023/03/28 04:16:05;;;;;;;3.42;1.73;;;;;18.90;101466.00;;;;2087637;28;20274;-68
2023/03/28 04:17:06;;;;;;;3.77;1.80;;;;;18.90;101466.00;;;;2088256;28;20232;-69
2023/03/28 04:18:07;;;;;;;4.83;2.00;;;;;18.90;101472.00;;;;2087051;28;20473;-69
2023/03/28 04:19:09;;;;;;;2.60;1.90;;;;;18.90;101463.00;;;;2087731;28;20232;-69
2023/03/28 04:20:13;;;;;;;3.80;1.80;;;;;18.90;101463.00;;;;2088627;28;20220;-69
2023/03/28 04:21:15;;;;;;;4.18;2.15;;;;;18.80;101473.00;;;;2084923;28;20216;-69
2023/03/28 04:22:17;;;;;;;3.03;1.63;;;;;18.90;101470.00;;;;2080625;28;20630;-69
2023/03/28 04:23:19;;;;;;;3.42;1.90;;;;;18.90;101471.00;;;;2087983;28;20204;-69
2023/03/28 04:24:23;;;;;;;3.40;1.63;;;;;18.90;101470.00;;;;2087719;28;20211;-69
2023/03/28 04:25:23;;;;;;;4.07;2.00;;;;;18.90;101477.00;;;;2087442;28;20228;-69
2023/03/28 04:26:27;;;;;;;4.10;2.00;;;;;18.90;101469.00;;;;2082931;28;20224;-68
2023/03/28 04:27:30;;;;;;;5.10;1.90;;;;;18.80;101476.00;;;;2088830;28;20215;-69
2023/03/28 04:28:30;;;;;;;4.78;2.10;;;;;18.80;101475.00;;;;2087918;28;21811;-69
2023/03/28 04:29:30;;;;;;;4.53;2.00;;;;;18.80;101466.00;;;;2088711;28;20224;-69
2023/03/28 04:30:32;;;;;;;4.90;2.23;;;;;18.90;101470.00;;;;2088203;28;20209;-68
2023/03/28 04:31:34;;;;;;;2.88;1.95;;;;;18.90;101467.00;;;;2088638;28;20354;-69
2023/03/28 04:32:36;;;;;;;4.30;1.75;;;;;18.90;101474.00;;;;2086701;28;20236;-69
2023/03/28 04:33:36;;;;;;;3.58;1.85;;;;;18.80;101473.00;;;;2083380;28;20244;-69
2023/03/28 04:34:37;;;;;;;5.87;2.40;;;;;18.90;101464.00;;;;2088349;28;20205;-69
2023/03/28 04:35:38;;;;;;;4.90;2.58;;;;;18.80;101461.00;;;;2088231;28;20227;-69
2023/03/28 04:36:39;;;;;;;3.70;1.90;;;;;18.80;101461.00;;;;2087856;28;20413;-69
2023/03/28 04:37:40;;;;;;;4.25;2.30;;;;;18.80;101465.00;;;;2085976;28;20295;-69
2023/03/28 04:38:40;;;;;;;4.47;2.00;;;;;18.90;101473.00;;;;2088184;28;20623;-69
2023/03/28 04:39:43;;;;;;;3.70;1.90;;;;;18.90;101468.00;;;;2088234;28;20881;-69
2023/03/28 04:40:44;;;;;;;4.55;2.38;;;;;18.90;101477.00;;;;2088636;28;20272;-68
2023/03/28 04:41:45;;;;;;;3.50;1.90;;;;;18.80;101467.00;;;;2088630;28;20258;-69
2023/03/28 04:42:45;;;;;;;4.50;2.50;;;;;18.90;101481.00;;;;2087892;28;20530;-69
2023/03/28 04:43:46;;;;;;;3.50;2.40;;;;;18.80;101476.00;;;;2088647;28;20236;-69
2023/03/28 04:44:46;;;;;;;4.23;2.00;;;;;18.90;101472.00;;;;2087687;28;20718;-69
2023/03/28 04:45:46;;;;;;;3.40;1.97;;;;;18.90;101473.00;;;;2088560;28;20228;-69
2023/03/28 04:46:50;;;;;;;3.50;1.77;;;;;18.80;101468.00;;;;2087839;28;20200;-69
2023/03/28 04:47:50;;;;;;;5.80;2.20;;;;;18.80;101479.00;;;;2083022;28;20691;-69
2023/03/28 04:48:51;;;;;;;3.57;1.60;;;;;18.80;101477.00;;;;2085871;28;20221;-68
2023/03/28 04:49:51;;;;;;;4.53;1.90;;;;;18.80;101480.00;;;;2087812;28;20196;-69
2023/03/28 04:50:52;;;;;;;4.50;2.30;;;;;18.80;101477.00;;;;2088572;28;20210;-69
2023/03/28 04:51:52;;;;;;;3.63;2.17;;;;;18.80;101466.00;;;;2087093;28;20266;-69
2023/03/28 04:52:53;;;;;;;5.03;2.00;;;;;18.80;101478.00;;;;2082661;28;20452;-69
2023/03/28 04:53:53;;;;;;;6.37;2.30;;;;;18.80;101474.00;;;;2084823;28;20681;-69
2023/03/28 04:54:54;;;;;;;3.70;2.30;;;;;18.80;101474.00;;;;2088004;28;20207;-69
2023/03/28 04:55:54;;;;;;;4.43;1.90;;;;;18.80;101473.00;;;;2088578;28;20201;-69
2023/03/28 04:56:54;;;;;;;5.00;2.17;;;;;18.80;101473.00;;;;2087644;28;20263;-69
2023/03/28 04:57:55;;;;;;;5.30;2.40;;;;;18.80;101475.00;;;;2087889;28;20205;-69
2023/03/28 04:58:55;;;;;;;3.87;1.70;;;;;18.80;101481.00;;;;2087339;28;20205;-69
2023/03/28 04:59:55;;;;;;;3.23;1.80;;;;;18.80;101486.00;;;;2088794;28;20233;-69
2023/03/28 05:00:56;;;;;;;4.53;2.23;;;;;18.80;101490.00;;;;2088461;28;20583;-69
2023/03/28 05:01:56;;;;;;;3.67;2.27;;;;;18.80;101487.00;;;;2087836;28;20207;-69
2023/03/28 05:02:58;;;;;;;4.83;2.40;;;;;18.80;101487.00;;;;2088535;28;20234;-69
2023/03/28 05:03:59;;;;;;;3.30;2.17;;;;;18.80;101482.00;;;;2088632;28;20211;-69
2023/03/28 05:04:59;;;;;;;4.07;1.90;;;;;18.80;101491.00;;;;2087849;28;20213;-69
2023/03/28 05:05:59;;;;;;;3.80;2.37;;;;;18.90;101494.00;;;;2088448;28;20216;-69
2023/03/28 05:07:01;;;;;;;3.37;2.60;;;;;18.90;101490.00;;;;2087794;28;20223;-69
2023/03/28 05:08:02;;;;;;;6.53;2.60;;;;;18.90;101491.00;;;;2088346;28;20785;-69
2023/03/28 05:09:03;;;;;;;3.17;1.98;;;;;18.90;101489.00;;;;2088504;28;20225;-69
2023/03/28 05:10:05;;;;;;;3.97;2.35;;;;;19.00;101489.00;;;;2087669;28;20212;-69
2023/03/28 05:11:05;;;;;;;7.18;2.20;;;;;19.00;101493.00;;;;2087935;28;20220;-69
2023/03/28 05:12:06;;;;;;;5.30;2.60;;;;;19.00;101488.00;;;;2087517;28;20215;-69
2023/03/28 05:13:06;;;;;;;6.87;2.60;;;;;19.10;101487.00;;;;2096021;28;20252;-69
2023/03/28 05:14:07;;;;;;;6.97;2.53;;;;;19.10;101494.00;;;;2095051;28;21123;-73
2023/03/28 05:15:07;;;;;;;4.37;2.00;;;;;19.20;101496.00;;;;2088542;28;20247;-69
2023/03/28 05:16:07;;;;;;;5.23;1.90;;;;;19.30;101491.00;;;;2088488;28;20243;-69
2023/03/28 05:17:08;;;;;;;6.73;2.63;;;;;19.40;101495.00;;;;2087783;28;20231;-68
2023/03/28 05:18:08;;;;;;;7.33;2.13;;;;;19.40;101491.00;;;;2088316;28;20244;-71